CYVR

Vancouver International Airport

Code ICAO CYVR
Code IATA YVR
Nom Vancouver International Airport
Emplacement Vancouver, British Columbia, CA
Élévation 14 pieds / 4.3 mètres
Latitude 49.19390106
Longitude -123.18399811
METAR CYVR 091000Z 08005KT 15SM BKN100 BKN210 01/00 A2988 RMK AC5CI1 CI TR SLP121
Informations extras Afficher cartes et CFS
Afficher NOTAMS
Piste Longueur Largeur Surface Élévation
08L 9940 ft 200 ft CON 13 ft
08R 11500 ft 200 ft ASP 9 ft
13 7300 ft 200 ft CON 8 ft
XX 3500 ft 75 ft CON 8 ft
26R 9940 ft 200 ft CON 9 ft
26L 11500 ft 200 ft ASP 6 ft
31 7300 ft 200 ft CON 7 ft
26A 3500 ft 75 ft CON 8 ft